Time;durP1;ratioP1;P1;durP2;ratioP2;P2;SDS_P1;SDS_P2;PMS_P1;PMS_P2;Temp;Humidity;BMP_temperature;BMP_pressure;BME280_temperature;BME280_humidity;BME280_pressure;Samples;Min_cycle;Max_cycle;Signal;HPM_P1;HPM_P2
2024/02/29 00:01:47;;;;;;;13.53;7.93;;;5.10;99.90;;;;;;5059938;28;20444;-82
2024/02/29 00:04:14;;;;;;;11.70;6.60;;;5.10;99.90;;;;;;5066171;28;20542;-80
2024/02/29 00:06:42;;;;;;;12.47;7.10;;;5.10;99.90;;;;;;5068974;28;20526;-82
2024/02/29 00:09:09;;;;;;;11.70;8.20;;;5.00;99.90;;;;;;5062838;28;20455;-83
2024/02/29 00:11:36;;;;;;;14.00;8.00;;;5.00;99.90;;;;;;5062499;28;20522;-82
2024/02/29 00:14:02;;;;;;;13.83;7.30;;;5.00;99.90;;;;;;5061081;28;20894;-81
2024/02/29 00:16:31;;;;;;;11.93;7.80;;;5.00;99.90;;;;;;5058481;28;20456;-81
2024/02/29 00:18:58;;;;;;;11.90;6.97;;;5.00;99.90;;;;;;5059504;28;20551;-82
2024/02/29 00:21:25;;;;;;;12.93;6.63;;;4.90;99.90;;;;;;5056954;28;20818;-81
2024/02/29 00:23:53;;;;;;;12.13;7.17;;;4.90;99.90;;;;;;5059625;28;20479;-82
2024/02/29 00:26:20;;;;;;;11.70;6.90;;;4.90;99.90;;;;;;5058122;28;20966;-80
2024/02/29 00:28:47;;;;;;;10.37;6.33;;;4.90;99.90;;;;;;5059572;28;20493;-81
2024/02/29 00:31:14;;;;;;;14.23;8.30;;;4.90;99.90;;;;;;5060078;28;20467;-81
2024/02/29 00:33:40;;;;;;;13.00;6.60;;;4.90;99.90;;;;;;5060025;28;20558;-82
2024/02/29 00:36:08;;;;;;;11.27;6.57;;;4.80;99.90;;;;;;5066002;28;20511;-81
2024/02/29 00:38:35;;;;;;;14.33;6.43;;;4.80;99.90;;;;;;5073431;28;20463;-81
2024/02/29 00:41:03;;;;;;;11.97;6.80;;;4.80;99.90;;;;;;5073792;28;20470;-82
2024/02/29 00:43:30;;;;;;;12.77;7.37;;;4.70;99.90;;;;;;5070362;28;21006;-82
2024/02/29 00:45:56;;;;;;;12.77;8.23;;;4.70;99.90;;;;;;5062952;28;20448;-84
2024/02/29 00:48:23;;;;;;;11.17;6.53;;;4.70;99.90;;;;;;5063691;28;20467;-84
2024/02/29 00:50:50;;;;;;;13.33;7.20;;;4.70;99.90;;;;;;5063900;28;20454;-83
2024/02/29 00:53:17;;;;;;;11.07;7.30;;;4.70;99.90;;;;;;5061435;28;20509;-81
2024/02/29 00:55:44;;;;;;;11.53;5.60;;;4.60;99.90;;;;;;5062105;28;20478;-82
2024/02/29 00:58:12;;;;;;;11.67;7.13;;;4.60;99.90;;;;;;5062436;28;20535;-84
2024/02/29 01:00:39;;;;;;;10.07;6.23;;;4.60;99.90;;;;;;5062888;28;20456;-83
2024/02/29 01:03:06;;;;;;;11.03;6.13;;;4.70;99.90;;;;;;5062120;28;20468;-81
2024/02/29 01:05:33;;;;;;;11.03;6.20;;;4.70;99.90;;;;;;5057984;28;20528;-84
2024/02/29 01:07:59;;;;;;;11.30;6.47;;;4.70;99.90;;;;;;5058203;28;20465;-83
2024/02/29 01:10:26;;;;;;;13.17;6.47;;;4.70;99.90;;;;;;5058300;28;20447;-83
2024/02/29 01:12:53;;;;;;;8.67;6.60;;;4.70;99.90;;;;;;5059087;28;20592;-82
2024/02/29 01:15:21;;;;;;;12.63;6.73;;;4.70;99.90;;;;;;5058510;28;20488;-81
2024/02/29 01:17:50;;;;;;;13.17;7.97;;;4.70;99.90;;;;;;5058831;28;21000;-81
2024/02/29 01:20:17;;;;;;;9.53;6.30;;;4.70;99.90;;;;;;5058835;28;20446;-80
2024/02/29 01:22:44;;;;;;;12.23;6.50;;;4.70;99.90;;;;;;5056577;28;20474;-82
2024/02/29 01:25:12;;;;;;;9.80;5.83;;;4.70;99.90;;;;;;5057325;28;20546;-82
2024/02/29 01:27:39;;;;;;;9.57;6.90;;;4.70;99.90;;;;;;5056936;28;20894;-82
2024/02/29 01:30:07;;;;;;;14.40;6.20;;;4.70;99.90;;;;;;5057915;28;20597;-81
2024/02/29 01:32:35;;;;;;;11.17;5.97;;;4.70;99.90;;;;;;5057072;28;20483;-82
2024/02/29 01:35:02;;;;;;;7.70;5.03;;;4.70;99.90;;;;;;5056802;28;20485;-81
2024/02/29 01:37:29;;;;;;;8.60;6.03;;;4.70;99.90;;;;;;5056589;28;20473;-81
2024/02/29 01:39:55;;;;;;;12.37;5.83;;;4.70;99.90;;;;;;5056411;28;20458;-81
2024/02/29 01:42:22;;;;;;;10.67;6.73;;;4.70;99.90;;;;;;5057263;28;20472;-83
2024/02/29 01:44:56;;;;;;;8.13;5.30;;;4.70;99.90;;;;;;5056849;28;20547;-84
2024/02/29 01:47:24;;;;;;;8.93;5.60;;;4.70;99.90;;;;;;5055400;28;20538;-83
2024/02/29 01:49:57;;;;;;;11.57;6.67;;;4.70;99.90;;;;;;5049225;28;20535;-82
2024/02/29 01:52:27;;;;;;;10.37;6.20;;;4.70;99.90;;;;;;5056217;28;20484;-81
2024/02/29 01:54:54;;;;;;;15.53;7.37;;;4.70;99.90;;;;;;5055552;28;20493;-81
2024/02/29 01:57:21;;;;;;;10.33;6.40;;;4.70;99.90;;;;;;5055866;28;20462;-82
2024/02/29 01:59:49;;;;;;;10.90;6.70;;;4.80;99.90;;;;;;5056815;28;20481;-81
2024/02/29 02:02:16;;;;;;;9.60;6.00;;;4.80;99.90;;;;;;5056573;28;20459;-80
2024/02/29 02:04:43;;;;;;;17.13;6.13;;;4.80;99.90;;;;;;5047856;28;20560;-83
2024/02/29 02:07:11;;;;;;;11.73;7.00;;;4.90;99.90;;;;;;5055259;28;20520;-83
2024/02/29 02:09:41;;;;;;;10.00;5.93;;;4.90;99.90;;;;;;5055815;28;20492;-82
2024/02/29 02:12:10;;;;;;;10.73;6.20;;;4.90;99.90;;;;;;5056002;28;20538;-79
2024/02/29 02:14:37;;;;;;;10.40;5.80;;;5.00;99.90;;;;;;5056156;28;20515;-81
2024/02/29 02:17:04;;;;;;;11.77;6.33;;;4.90;99.90;;;;;;5055377;28;20964;-81
2024/02/29 02:19:31;;;;;;;11.80;6.33;;;4.90;99.90;;;;;;5056207;28;21163;-81
2024/02/29 02:21:59;;;;;;;9.87;5.70;;;4.80;99.90;;;;;;5055912;28;20526;-80
2024/02/29 02:24:26;;;;;;;8.60;6.33;;;4.90;99.90;;;;;;5055349;28;20532;-79
2024/02/29 02:26:53;;;;;;;8.43;5.20;;;4.90;99.90;;;;;;5055205;28;20465;-81
2024/02/29 02:29:20;;;;;;;11.47;5.43;;;4.90;99.90;;;;;;5055445;28;20971;-82
2024/02/29 02:31:46;;;;;;;9.40;5.83;;;4.90;99.90;;;;;;5055751;28;20470;-83
2024/02/29 02:34:13;;;;;;;11.27;5.83;;;4.90;99.90;;;;;;5055031;28;20487;-81
2024/02/29 02:36:40;;;;;;;9.20;5.20;;;4.90;99.90;;;;;;5055063;28;20547;-83
2024/02/29 02:39:08;;;;;;;8.20;4.93;;;5.00;99.90;;;;;;5055698;28;20460;-81
2024/02/29 02:41:36;;;;;;;12.67;5.60;;;5.00;99.90;;;;;;5055101;28;20891;-81
2024/02/29 02:44:02;;;;;;;8.57;5.80;;;4.90;99.90;;;;;;5055302;28;20494;-81
2024/02/29 02:46:29;;;;;;;9.43;5.23;;;4.90;99.90;;;;;;5054284;28;20466;-82
2024/02/29 02:48:56;;;;;;;8.10;5.47;;;4.90;99.90;;;;;;5055264;28;20469;-81
2024/02/29 02:51:26;;;;;;;8.77;5.37;;;4.90;99.90;;;;;;5055349;28;20466;-82
2024/02/29 02:53:53;;;;;;;10.70;5.97;;;4.80;99.90;;;;;;5054555;28;20553;-80
2024/02/29 02:56:21;;;;;;;10.73;5.53;;;4.70;99.90;;;;;;5053986;28;20483;-81
2024/02/29 02:58:48;;;;;;;9.23;5.77;;;4.70;99.90;;;;;;5055524;28;20935;-81
2024/02/29 03:01:14;;;;;;;7.70;5.37;;;4.70;99.90;;;;;;5054549;28;20467;-81
2024/02/29 03:03:41;;;;;;;10.37;5.73;;;4.70;99.90;;;;;;5054371;28;20471;-80
2024/02/29 03:06:09;;;;;;;8.47;5.53;;;4.70;99.90;;;;;;5053579;28;20459;-80
2024/02/29 03:08:35;;;;;;;11.83;5.73;;;4.60;99.90;;;;;;5054117;28;20471;-81
2024/02/29 03:11:02;;;;;;;7.97;5.43;;;4.60;99.90;;;;;;5053455;28;20463;-82
2024/02/29 03:13:30;;;;;;;10.07;5.70;;;4.60;99.90;;;;;;5053905;28;20578;-81
2024/02/29 03:15:57;;;;;;;10.37;5.77;;;4.50;99.90;;;;;;5052953;28;20963;-82
2024/02/29 03:18:24;;;;;;;9.80;5.53;;;4.50;99.90;;;;;;5054175;28;20452;-81
2024/02/29 03:20:51;;;;;;;10.77;5.93;;;4.50;99.90;;;;;;5053537;28;20451;-82
2024/02/29 03:23:20;;;;;;;9.00;5.17;;;4.50;99.90;;;;;;5053757;28;21032;-81
2024/02/29 03:25:47;;;;;;;9.17;5.50;;;4.50;99.90;;;;;;5053736;28;20974;-81
2024/02/29 03:28:13;;;;;;;9.70;5.80;;;4.50;99.90;;;;;;5053665;28;20555;-82
2024/02/29 03:30:41;;;;;;;7.97;4.80;;;4.50;99.90;;;;;;5053367;28;20565;-83
2024/02/29 03:33:08;;;;;;;10.20;5.90;;;4.50;99.90;;;;;;5053078;28;20499;-82
2024/02/29 03:35:35;;;;;;;10.50;6.17;;;4.50;99.90;;;;;;5053343;28;20455;-82
2024/02/29 03:38:02;;;;;;;10.80;6.70;;;4.50;99.90;;;;;;5053212;28;20535;-82
2024/02/29 03:40:29;;;;;;;12.60;5.40;;;4.60;99.90;;;;;;5053180;28;20536;-81
2024/02/29 03:42:56;;;;;;;10.93;6.00;;;4.60;99.90;;;;;;5052816;28;20582;-83
2024/02/29 03:45:23;;;;;;;8.90;6.03;;;4.60;99.90;;;;;;5054216;28;20463;-81
2024/02/29 03:47:51;;;;;;;6.90;4.90;;;4.60;99.90;;;;;;5052830;28;20827;-81
2024/02/29 03:50:18;;;;;;;8.83;5.87;;;4.60;99.90;;;;;;5053672;28;20455;-79
2024/02/29 03:52:45;;;;;;;10.60;5.00;;;4.60;99.90;;;;;;5047485;28;20494;-81
2024/02/29 03:55:12;;;;;;;10.57;5.73;;;4.70;99.90;;;;;;5052905;28;20480;-81
2024/02/29 03:57:39;;;;;;;10.90;5.20;;;4.80;99.90;;;;;;5053454;28;20960;-82
2024/02/29 04:00:10;;;;;;;10.80;5.83;;;4.80;99.90;;;;;;5054186;28;20482;-79
2024/02/29 04:02:38;;;;;;;9.57;5.20;;;4.80;99.90;;;;;;5052773;28;20480;-81
2024/02/29 04:05:08;;;;;;;10.70;5.20;;;4.80;99.90;;;;;;5053325;28;20881;-82
2024/02/29 04:07:36;;;;;;;11.50;5.40;;;4.80;99.90;;;;;;5053868;28;20463;-81
2024/02/29 04:10:03;;;;;;;9.33;6.03;;;4.90;99.90;;;;;;5053905;28;20510;-84
2024/02/29 04:12:30;;;;;;;8.57;5.47;;;4.90;99.90;;;;;;5054260;28;20554;-82
2024/02/29 04:14:57;;;;;;;9.90;4.90;;;5.00;99.90;;;;;;5053996;28;20494;-81
2024/02/29 04:17:24;;;;;;;8.67;6.13;;;5.00;99.90;;;;;;5053299;28;20470;-82
2024/02/29 04:19:51;;;;;;;8.60;5.50;;;5.00;99.90;;;;;;5053977;28;20525;-81
2024/02/29 04:22:19;;;;;;;9.70;5.80;;;5.00;99.90;;;;;;5053617;28;20978;-81
2024/02/29 04:24:46;;;;;;;11.50;6.83;;;5.00;99.90;;;;;;5045789;28;20480;-81
2024/02/29 04:27:13;;;;;;;9.73;5.10;;;5.00;99.90;;;;;;5053447;28;20462;-80
2024/02/29 04:29:39;;;;;;;9.07;5.57;;;4.90;99.90;;;;;;5053217;28;20456;-83
2024/02/29 04:32:07;;;;;;;8.47;4.97;;;4.90;99.90;;;;;;5053133;28;20460;-81
2024/02/29 04:34:35;;;;;;;10.40;5.70;;;4.90;99.90;;;;;;5052634;28;20493;-82
2024/02/29 04:37:02;;;;;;;12.57;5.67;;;4.90;99.90;;;;;;5052484;28;20631;-80
2024/02/29 04:39:31;;;;;;;9.67;5.33;;;5.00;99.90;;;;;;5053589;28;20520;-81
2024/02/29 04:41:57;;;;;;;10.73;6.00;;;5.00;99.90;;;;;;5056911;28;20453;-81
2024/02/29 04:44:24;;;;;;;8.50;5.00;;;5.00;99.90;;;;;;5056849;28;20559;-82
2024/02/29 04:46:51;;;;;;;10.87;5.50;;;4.90;99.90;;;;;;5056384;28;20463;-81
2024/02/29 04:49:18;;;;;;;10.70;5.93;;;4.80;99.90;;;;;;5056750;28;20532;-83
2024/02/29 04:51:45;;;;;;;8.37;4.77;;;4.90;99.90;;;;;;5057082;28;20518;-82
2024/02/29 04:54:12;;;;;;;7.93;4.87;;;4.90;99.90;;;;;;5056694;28;20501;-82
2024/02/29 04:56:40;;;;;;;10.97;6.40;;;4.80;99.90;;;;;;5056481;28;20466;-82
2024/02/29 04:59:07;;;;;;;11.20;5.67;;;4.80;99.90;;;;;;5056618;28;20462;-82
2024/02/29 05:01:34;;;;;;;10.80;6.00;;;4.90;99.90;;;;;;5056947;28;20459;-82
2024/02/29 05:04:01;;;;;;;10.00;4.83;;;4.80;99.90;;;;;;5056820;28;20475;-83
2024/02/29 05:06:27;;;;;;;8.87;5.13;;;4.90;99.90;;;;;;5056063;28;20457;-81
2024/02/29 05:08:54;;;;;;;11.10;5.57;;;4.90;99.90;;;;;;5056525;28;20986;-82
2024/02/29 05:11:21;;;;;;;9.37;5.40;;;4.80;99.90;;;;;;5056398;28;20465;-83
2024/02/29 05:13:49;;;;;;;10.53;5.60;;;4.80;99.90;;;;;;5056132;28;20492;-81
2024/02/29 05:16:18;;;;;;;9.33;5.07;;;4.70;99.90;;;;;;5056741;28;20461;-81
2024/02/29 05:18:45;;;;;;;10.73;5.50;;;4.60;99.90;;;;;;5049203;28;20494;-81
2024/02/29 05:21:13;;;;;;;13.40;5.83;;;4.60;99.90;;;;;;5056057;28;20446;-81
2024/02/29 05:23:40;;;;;;;7.97;5.40;;;4.60;99.90;;;;;;5055481;28;21016;-80
2024/02/29 05:26:07;;;;;;;7.40;4.80;;;4.70;99.90;;;;;;5053826;28;20480;-81
2024/02/29 05:28:35;;;;;;;8.30;5.27;;;4.80;99.90;;;;;;5056174;28;20544;-81
2024/02/29 05:31:03;;;;;;;8.77;4.80;;;4.70;99.90;;;;;;5055978;28;20454;-81
2024/02/29 05:33:30;;;;;;;10.10;4.90;;;4.70;99.90;;;;;;5054655;28;20483;-81
2024/02/29 05:35:57;;;;;;;10.63;5.77;;;4.70;99.90;;;;;;5062510;28;20467;-81
2024/02/29 05:38:24;;;;;;;9.07;5.20;;;4.70;99.90;;;;;;5055886;28;20549;-81
2024/02/29 05:40:52;;;;;;;10.20;5.40;;;4.70;99.90;;;;;;5056612;28;20447;-81
2024/02/29 05:43:18;;;;;;;11.63;5.90;;;4.80;99.90;;;;;;5055920;28;20484;-82
2024/02/29 05:45:45;;;;;;;8.97;4.87;;;4.80;99.90;;;;;;5054866;28;20461;-81
2024/02/29 05:48:13;;;;;;;6.80;4.50;;;4.80;99.90;;;;;;5054928;28;20461;-81
2024/02/29 05:50:40;;;;;;;8.07;4.37;;;4.90;99.90;;;;;;5052013;28;20473;-81
2024/02/29 05:53:07;;;;;;;9.07;4.60;;;4.90;99.90;;;;;;5053539;28;20485;-81
2024/02/29 05:55:34;;;;;;;8.53;4.57;;;4.90;99.90;;;;;;5053452;28;20461;-81
2024/02/29 05:58:01;;;;;;;10.17;5.33;;;5.00;99.90;;;;;;5054172;28;20459;-82
2024/02/29 06:00:28;;;;;;;11.00;5.47;;;5.00;99.90;;;;;;5055315;28;20598;-81
2024/02/29 06:02:55;;;;;;;11.80;6.17;;;5.00;99.90;;;;;;5055539;28;20548;-84
2024/02/29 06:05:23;;;;;;;10.40;5.90;;;5.00;99.90;;;;;;5054035;28;20537;-80
2024/02/29 06:07:50;;;;;;;7.23;4.60;;;5.00;99.90;;;;;;5054326;28;20998;-82
2024/02/29 06:10:19;;;;;;;8.67;4.60;;;5.00;99.90;;;;;;5054843;28;20457;-78
2024/02/29 06:12:46;;;;;;;14.43;5.60;;;5.10;99.90;;;;;;5055315;28;20483;-81
2024/02/29 06:15:13;;;;;;;8.00;5.10;;;5.00;99.90;;;;;;5053863;28;20487;-80
2024/02/29 06:17:40;;;;;;;6.60;4.23;;;5.10;99.90;;;;;;5054358;28;20458;-80
2024/02/29 06:20:10;;;;;;;11.40;5.80;;;5.10;99.90;;;;;;5054913;28;20470;-79
2024/02/29 06:22:39;;;;;;;12.03;5.50;;;5.10;99.90;;;;;;5054897;28;20530;-80
2024/02/29 06:25:08;;;;;;;9.47;4.80;;;4.70;99.90;;;;;;5064398;28;20448;-79
2024/02/29 06:27:35;;;;;;;9.47;4.73;;;5.00;99.90;;;;;;5064190;28;20499;-80
2024/02/29 06:30:04;;;;;;;10.23;5.40;;;4.90;99.90;;;;;;5066983;28;20447;-80
2024/02/29 06:32:31;;;;;;;7.70;4.00;;;4.90;99.90;;;;;;5068887;28;20492;-80
2024/02/29 06:34:57;;;;;;;12.27;5.83;;;4.90;99.90;;;;;;5065953;28;20487;-80
2024/02/29 06:37:24;;;;;;;6.87;4.80;;;5.00;99.90;;;;;;5065888;28;20442;-82
2024/02/29 06:39:53;;;;;;;11.37;5.30;;;5.20;99.90;;;;;;5064861;28;20451;-80
2024/02/29 06:42:20;;;;;;;8.53;4.40;;;5.20;99.90;;;;;;5062674;28;20828;-82
2024/02/29 06:44:49;;;;;;;10.90;4.07;;;5.30;99.90;;;;;;5062159;28;20471;-80
2024/02/29 06:47:16;;;;;;;11.73;4.87;;;5.30;99.90;;;;;;5053865;28;20458;-80
2024/02/29 06:49:43;;;;;;;10.53;4.70;;;5.30;99.90;;;;;;5059434;28;20466;-79
2024/02/29 06:52:10;;;;;;;6.70;3.90;;;5.40;99.90;;;;;;5056422;28;20436;-81
2024/02/29 06:54:37;;;;;;;9.73;4.93;;;5.40;99.90;;;;;;5056237;28;20486;-80
2024/02/29 06:57:05;;;;;;;7.20;3.80;;;5.50;99.90;;;;;;5054855;28;20445;-81
2024/02/29 06:59:32;;;;;;;8.20;4.83;;;5.50;99.90;;;;;;5055392;28;20874;-80
2024/02/29 07:01:59;;;;;;;10.90;5.60;;;5.60;99.90;;;;;;5053480;28;20878;-82
2024/02/29 07:04:26;;;;;;;8.50;4.40;;;5.60;99.90;;;;;;5053433;28;20551;-79
2024/02/29 07:06:53;;;;;;;11.83;4.90;;;5.60;99.90;;;;;;5055386;28;21013;-80
2024/02/29 07:09:19;;;;;;;9.20;4.47;;;5.70;99.90;;;;;;5053981;28;20964;-80
2024/02/29 07:11:46;;;;;;;11.07;5.80;;;5.90;99.90;;;;;;5055084;28;20446;-79
2024/02/29 07:14:16;;;;;;;7.50;4.67;;;5.90;99.90;;;;;;5055573;28;20526;-80
2024/02/29 07:16:43;;;;;;;8.63;5.20;;;6.00;99.90;;;;;;5054239;28;20455;-80
2024/02/29 07:19:12;;;;;;;10.20;5.30;;;6.00;99.90;;;;;;5054481;28;20467;-80
2024/02/29 07:21:39;;;;;;;7.80;4.27;;;6.10;99.90;;;;;;5055652;28;20475;-82
2024/02/29 07:24:07;;;;;;;8.97;4.80;;;6.10;99.90;;;;;;5056734;28;20505;-77
2024/02/29 07:26:34;;;;;;;7.57;4.30;;;6.20;99.90;;;;;;5056671;28;20486;-81
2024/02/29 07:29:01;;;;;;;7.40;4.20;;;6.30;99.90;;;;;;5057078;28;20538;-82
2024/02/29 07:31:29;;;;;;;7.27;4.30;;;6.30;99.90;;;;;;5056563;28;20465;-81
2024/02/29 07:33:56;;;;;;;9.63;5.37;;;6.40;99.90;;;;;;5055369;28;20517;-82
2024/02/29 07:36:23;;;;;;;9.20;4.07;;;6.40;99.90;;;;;;5055637;28;20465;-80
2024/02/29 07:38:50;;;;;;;9.60;5.20;;;6.50;99.90;;;;;;5055904;28;20466;-82
2024/02/29 07:41:17;;;;;;;8.27;4.77;;;6.50;99.90;;;;;;5055500;28;21050;-81
2024/02/29 07:43:43;;;;;;;6.67;4.03;;;6.70;99.90;;;;;;5056755;28;20487;-80
2024/02/29 07:46:10;;;;;;;9.80;4.60;;;6.70;99.90;;;;;;5058015;28;20454;-82
2024/02/29 07:48:38;;;;;;;8.10;5.57;;;6.70;99.90;;;;;;5065800;28;20452;-80
2024/02/29 07:51:05;;;;;;;10.57;4.53;;;6.80;99.90;;;;;;5066007;28;20560;-80
2024/02/29 07:53:32;;;;;;;6.47;3.53;;;6.90;99.90;;;;;;5060344;28;20564;-81
2024/02/29 07:55:59;;;;;;;6.50;3.80;;;7.00;99.90;;;;;;5059830;28;20560;-82
2024/02/29 07:58:26;;;;;;;8.30;5.10;;;7.10;99.90;;;;;;5059677;28;20535;-81
2024/02/29 08:00:53;;;;;;;7.30;4.37;;;7.20;99.90;;;;;;5057853;28;20441;-80
2024/02/29 08:03:19;;;;;;;9.80;6.03;;;7.20;99.90;;;;;;5058889;28;20543;-80
2024/02/29 08:05:48;;;;;;;9.10;4.57;;;7.30;99.90;;;;;;5060151;28;20453;-80
2024/02/29 08:08:15;;;;;;;8.67;4.40;;;7.40;99.90;;;;;;5061101;28;20462;-79
2024/02/29 08:10:42;;;;;;;5.87;3.53;;;7.50;99.90;;;;;;5061539;28;20501;-79
2024/02/29 08:13:09;;;;;;;6.67;4.43;;;7.60;99.90;;;;;;5061741;28;20499;-80
2024/02/29 08:15:35;;;;;;;9.10;4.57;;;7.60;99.90;;;;;;5064092;28;20955;-82
2024/02/29 08:18:02;;;;;;;6.13;3.77;;;7.70;99.90;;;;;;5064636;28;20457;-82
2024/02/29 08:20:29;;;;;;;6.23;3.73;;;7.80;99.90;;;;;;5065237;28;20908;-81
2024/02/29 08:22:57;;;;;;;7.37;3.80;;;7.90;99.90;;;;;;5070132;28;20477;-81
2024/02/29 08:25:26;;;;;;;7.60;4.10;;;8.00;99.90;;;;;;5070089;28;20955;-82
2024/02/29 08:27:53;;;;;;;7.90;4.30;;;8.10;99.90;;;;;;5065698;28;20453;-82
2024/02/29 08:30:20;;;;;;;10.13;4.63;;;8.30;99.90;;;;;;5068233;28;20532;-83
2024/02/29 08:32:48;;;;;;;6.47;4.20;;;8.40;99.90;;;;;;5071755;28;20474;-81
2024/02/29 08:35:15;;;;;;;5.80;3.73;;;8.50;99.90;;;;;;5070815;28;20494;-82
2024/02/29 08:37:43;;;;;;;5.40;3.80;;;8.70;99.90;;;;;;5070859;28;20452;-81
2024/02/29 08:40:12;;;;;;;6.93;3.43;;;8.90;99.90;;;;;;5078583;28;20459;-80
2024/02/29 08:42:38;;;;;;;6.60;3.67;;;9.10;99.90;;;;;;5070128;28;20559;-80
2024/02/29 08:45:06;;;;;;;4.50;3.27;;;9.20;99.90;;;;;;5073449;28;20531;-82
2024/02/29 08:47:33;;;;;;;5.10;3.80;;;9.20;99.90;;;;;;5074119;28;20505;-83
2024/02/29 08:50:00;;;;;;;9.10;4.20;;;9.20;99.90;;;;;;5070315;28;20474;-83
2024/02/29 08:52:27;;;;;;;5.00;2.97;;;9.20;99.90;;;;;;5070149;28;20538;-80
2024/02/29 08:54:53;;;;;;;5.43;3.57;;;9.20;99.90;;;;;;5070448;28;20557;-81
2024/02/29 08:57:22;;;;;;;5.73;3.93;;;9.20;99.90;;;;;;5067714;28;20550;-82
2024/02/29 08:59:48;;;;;;;6.50;3.23;;;9.10;99.90;;;;;;5068687;28;20455;-82
2024/02/29 09:02:15;;;;;;;5.97;3.43;;;9.20;99.90;;;;;;5068624;28;20494;-80
2024/02/29 09:04:42;;;;;;;5.30;3.20;;;9.40;99.90;;;;;;5068249;28;20510;-81
2024/02/29 09:07:11;;;;;;;6.43;3.73;;;9.50;99.90;;;;;;5073826;28;20935;-81
2024/02/29 09:09:41;;;;;;;5.97;3.67;;;9.90;99.90;;;;;;5069594;28;20553;-83
2024/02/29 09:12:09;;;;;;;5.77;3.50;;;10.30;99.90;;;;;;5070220;28;20470;-82
2024/02/29 09:14:37;;;;;;;6.20;3.63;;;10.80;99.90;;;;;;5071675;28;20492;-82
2024/02/29 09:17:06;;;;;;;4.37;2.90;;;11.50;99.90;;;;;;5067070;28;20536;-83
2024/02/29 09:19:33;;;;;;;4.43;3.07;;;11.90;99.90;;;;;;5069021;28;20457;-82
2024/02/29 09:22:00;;;;;;;5.43;3.37;;;12.60;99.40;;;;;;5067206;28;20561;-82
2024/02/29 09:24:26;;;;;;;6.47;4.00;;;13.20;96.10;;;;;;5056856;28;20573;-82
2024/02/29 09:26:53;;;;;;;5.70;3.40;;;13.70;94.60;;;;;;5050764;28;20459;-81
2024/02/29 09:29:20;;;;;;;5.20;2.90;;;13.60;93.70;;;;;;5066747;28;20516;-82
2024/02/29 09:31:49;;;;;;;5.13;3.20;;;13.80;92.90;;;;;;5060518;28;20459;-80
2024/02/29 09:34:16;;;;;;;5.00;2.90;;;13.70;90.70;;;;;;5070094;28;20481;-83
2024/02/29 09:36:45;;;;;;;4.00;3.00;;;13.80;90.10;;;;;;5076023;28;20836;-83
2024/02/29 09:39:12;;;;;;;4.13;2.50;;;13.80;88.80;;;;;;5067771;28;20463;-82
2024/02/29 09:41:39;;;;;;;5.17;3.10;;;13.70;89.20;;;;;;5063186;28;20496;-81
2024/02/29 09:44:06;;;;;;;5.20;2.73;;;13.40;89.00;;;;;;5065506;28;20513;-80
2024/02/29 09:46:33;;;;;;;3.83;2.97;;;13.50;90.00;;;;;;5078476;28;20478;-82
2024/02/29 09:49:04;;;;;;;5.80;3.50;;;13.60;88.50;;;;;;5075419;28;20481;-80
2024/02/29 09:51:31;;;;;;;5.10;3.10;;;13.70;89.20;;;;;;5066250;28;20450;-82
2024/02/29 09:53:59;;;;;;;5.97;3.10;;;14.00;90.10;;;;;;5073204;28;20499;-80
2024/02/29 09:56:28;;;;;;;4.90;3.03;;;14.00;89.70;;;;;;5067156;28;20929;-81
2024/02/29 09:58:56;;;;;;;4.07;2.93;;;14.30;90.10;;;;;;5071597;28;20476;-82
2024/02/29 10:01:23;;;;;;;5.53;3.60;;;14.50;85.00;;;;;;5068858;28;21014;-80
2024/02/29 10:03:50;;;;;;;4.87;2.70;;;15.10;84.70;;;;;;5073174;28;20472;-81
2024/02/29 10:06:18;;;;;;;3.83;2.73;;;15.30;83.60;;;;;;5069736;28;20516;-82
2024/02/29 10:08:45;;;;;;;4.50;3.13;;;15.40;84.00;;;;;;5070375;28;20461;-82
2024/02/29 10:11:12;;;;;;;4.63;2.93;;;15.20;82.60;;;;;;5071607;28;20446;-82
2024/02/29 10:13:40;;;;;;;4.60;3.07;;;14.90;82.50;;;;;;5069349;28;20552;-82
2024/02/29 10:16:08;;;;;;;3.97;2.87;;;14.70;83.10;;;;;;5068453;28;21040;-81
2024/02/29 10:18:36;;;;;;;4.50;3.00;;;14.50;83.90;;;;;;5073791;28;20448;-82
2024/02/29 10:21:10;;;;;;;5.30;3.20;;;14.40;84.10;;;;;;5068805;28;20529;-83
2024/02/29 10:23:38;;;;;;;6.37;2.30;;;14.50;84.10;;;;;;5065996;28;20483;-82
2024/02/29 10:26:05;;;;;;;5.17;3.47;;;14.90;84.40;;;;;;5063578;28;20524;-81
2024/02/29 10:28:32;;;;;;;5.13;2.23;;;14.70;84.30;;;;;;5061672;28;20824;-83
2024/02/29 10:31:00;;;;;;;4.83;2.90;;;14.70;82.30;;;;;;5062140;28;20459;-82
2024/02/29 10:33:27;;;;;;;4.00;2.60;;;14.30;82.30;;;;;;5061444;28;20565;-82
2024/02/29 10:35:54;;;;;;;4.63;2.73;;;15.10;84.30;;;;;;5061607;28;20555;-83
2024/02/29 10:38:22;;;;;;;4.60;2.90;;;15.30;82.70;;;;;;5063353;28;20957;-83
2024/02/29 10:40:52;;;;;;;3.53;2.73;;;15.70;84.00;;;;;;5066273;28;20456;-80
2024/02/29 10:43:20;;;;;;;6.53;3.20;;;15.90;82.10;;;;;;5072471;28;20534;-81
2024/02/29 10:45:50;;;;;;;4.80;2.97;;;15.70;80.10;;;;;;5068482;28;20438;-79
2024/02/29 10:48:23;;;;;;;4.80;3.20;;;16.20;82.20;;;;;;5079597;28;20466;-80
2024/02/29 10:50:59;;;;;;;5.90;3.10;;;16.10;79.80;;;;;;5065194;28;20424;-80
2024/02/29 10:53:37;;;;;;;2.90;2.03;;;15.30;79.40;;;;;;5070340;28;20510;-80
2024/02/29 10:56:12;;;;;;;5.23;2.90;;;15.20;79.70;;;;;;5064173;28;20487;-80
2024/02/29 10:58:42;;;;;;;4.40;2.80;;;15.00;82.30;;;;;;5068987;28;20461;-81
2024/02/29 11:01:10;;;;;;;4.93;2.90;;;15.10;80.20;;;;;;5069887;28;20451;-80
2024/02/29 11:03:38;;;;;;;4.90;2.97;;;14.60;80.00;;;;;;5071416;28;20485;-80
2024/02/29 11:06:07;;;;;;;5.10;3.50;;;14.80;81.20;;;;;;5072267;28;20515;-82
2024/02/29 11:08:34;;;;;;;4.30;3.00;;;15.00;81.30;;;;;;5073594;28;20964;-83
2024/02/29 11:11:01;;;;;;;5.10;2.80;;;14.90;80.30;;;;;;5073690;28;20461;-82
2024/02/29 11:13:29;;;;;;;4.67;2.77;;;14.60;79.00;;;;;;5069308;28;20836;-82
2024/02/29 11:15:57;;;;;;;5.77;2.97;;;14.60;79.60;;;;;;5065758;28;20487;-82
2024/02/29 11:18:24;;;;;;;3.77;2.67;;;14.30;80.70;;;;;;5074555;28;20536;-82
2024/02/29 11:21:07;;;;;;;4.90;2.87;;;14.40;80.90;;;;;;5066940;28;20472;-83
2024/02/29 11:23:39;;;;;;;5.20;2.80;;;14.30;82.00;;;;;;5064238;28;20850;-82
2024/02/29 11:26:10;;;;;;;3.77;2.43;;;14.00;81.40;;;;;;5070413;28;20450;-82
2024/02/29 11:28:42;;;;;;;5.93;3.20;;;14.10;81.70;;;;;;5069565;28;20450;-81
2024/02/29 11:31:14;;;;;;;5.60;3.20;;;14.00;83.20;;;;;;5055184;28;20451;-81
2024/02/29 11:33:50;;;;;;;3.57;2.90;;;14.20;84.10;;;;;;5063627;28;20516;-81
2024/02/29 11:36:17;;;;;;;4.90;2.97;;;14.30;84.70;;;;;;5055270;28;20476;-82
2024/02/29 11:38:47;;;;;;;5.30;3.40;;;14.70;82.30;;;;;;5062624;28;20463;-82
2024/02/29 11:41:15;;;;;;;5.10;3.27;;;14.50;81.20;;;;;;5058875;28;20450;-82
2024/02/29 11:43:44;;;;;;;3.60;2.57;;;14.50;82.80;;;;;;5058373;28;20478;-83
2024/02/29 11:46:11;;;;;;;9.70;2.87;;;14.50;80.70;;;;;;5063810;28;20442;-84
2024/02/29 11:48:42;;;;;;;4.43;2.50;;;14.80;81.10;;;;;;5075858;28;20440;-84
2024/02/29 11:51:09;;;;;;;4.70;3.27;;;14.90;82.40;;;;;;5072061;28;20469;-84
2024/02/29 11:53:38;;;;;;;3.40;2.43;;;14.70;82.20;;;;;;5077075;28;20464;-84
2024/02/29 11:56:06;;;;;;;3.37;2.47;;;14.50;82.40;;;;;;5076313;28;20488;-82
2024/02/29 11:58:34;;;;;;;4.27;2.70;;;14.50;83.50;;;;;;5077308;28;20453;-84
2024/02/29 12:01:03;;;;;;;7.13;3.50;;;14.50;80.60;;;;;;5076983;28;20443;-84
2024/02/29 12:03:30;;;;;;;4.30;2.87;;;14.30;80.00;;;;;;5076748;28;20519;-83
2024/02/29 12:05:58;;;;;;;4.80;2.67;;;13.90;81.00;;;;;;5074233;28;20474;-82
2024/02/29 12:08:26;;;;;;;4.50;2.77;;;13.80;82.40;;;;;;5076697;28;20447;-84
2024/02/29 12:10:56;;;;;;;4.40;2.90;;;13.90;81.80;;;;;;5076472;28;20507;-82
2024/02/29 12:13:23;;;;;;;5.53;2.80;;;13.90;82.80;;;;;;5075492;28;20497;-81
2024/02/29 12:15:50;;;;;;;5.63;2.90;;;13.70;82.50;;;;;;5075493;28;20578;-82
2024/02/29 12:18:19;;;;;;;5.97;3.13;;;14.00;83.90;;;;;;5076162;28;20480;-84
2024/02/29 12:20:46;;;;;;;4.27;2.83;;;13.90;84.00;;;;;;5076781;28;20444;-85
2024/02/29 12:23:14;;;;;;;3.93;2.30;;;13.50;83.50;;;;;;5071437;28;20497;-81
2024/02/29 12:25:42;;;;;;;5.40;3.40;;;13.80;83.60;;;;;;5068008;28;20474;-81
2024/02/29 12:28:09;;;;;;;5.30;3.30;;;13.80;83.30;;;;;;5064639;28;20460;-79
2024/02/29 12:30:36;;;;;;;4.93;2.63;;;13.90;82.80;;;;;;5060133;28;20569;-80
2024/02/29 12:33:03;;;;;;;3.23;2.40;;;13.80;84.10;;;;;;5059334;28;20565;-81
2024/02/29 12:35:32;;;;;;;4.40;2.43;;;13.90;84.10;;;;;;5056724;28;20585;-80
2024/02/29 12:38:01;;;;;;;5.80;3.03;;;14.20;84.20;;;;;;5056735;28;20483;-80
2024/02/29 12:40:30;;;;;;;4.17;2.30;;;14.50;84.10;;;;;;5056638;28;21099;-80
2024/02/29 12:42:57;;;;;;;4.37;2.70;;;14.60;84.60;;;;;;5056745;28;20474;-81
2024/02/29 12:45:26;;;;;;;4.30;2.70;;;15.00;83.20;;;;;;5056224;28;20448;-78
2024/02/29 12:47:53;;;;;;;4.80;2.47;;;15.00;82.20;;;;;;5057053;28;20461;-79
2024/02/29 12:50:21;;;;;;;3.67;1.80;;;15.10;81.70;;;;;;5057327;28;20454;-80
2024/02/29 12:52:53;;;;;;;3.80;2.40;;;15.00;83.40;;;;;;5059310;28;20496;-80